sensor_id;sensor_type;location;lat;lon;timestamp;temperature;humidity
77467;DHT22;66564;42.482;25.548;2023-06-22T00:00:57;22.94;60.78
77467;DHT22;66564;42.482;25.548;2023-06-22T00:03:23;22.94;60.55
77467;DHT22;66564;42.482;25.548;2023-06-22T00:05:52;22.95;60.21
77467;DHT22;66564;42.482;25.548;2023-06-22T00:08:19;22.96;60.29
77467;DHT22;66564;42.482;25.548;2023-06-22T00:10:45;22.95;60.56
77467;DHT22;66564;42.482;25.548;2023-06-22T00:13:11;22.91;60.40
77467;DHT22;66564;42.482;25.548;2023-06-22T00:15:38;22.91;60.24
77467;DHT22;66564;42.482;25.548;2023-06-22T00:18:05;22.88;60.23
77467;DHT22;66564;42.482;25.548;2023-06-22T00:20:31;22.91;60.10
77467;DHT22;66564;42.482;25.548;2023-06-22T00:22:58;22.88;60.00
77467;DHT22;66564;42.482;25.548;2023-06-22T00:25:24;22.88;60.22
77467;DHT22;66564;42.482;25.548;2023-06-22T00:27:49;22.88;60.16
77467;DHT22;66564;42.482;25.548;2023-06-22T00:30:16;22.88;60.24
77467;DHT22;66564;42.482;25.548;2023-06-22T00:32:42;22.85;60.12
77467;DHT22;66564;42.482;25.548;2023-06-22T00:35:11;22.85;60.18
77467;DHT22;66564;42.482;25.548;2023-06-22T00:37:37;22.85;60.18
77467;DHT22;66564;42.482;25.548;2023-06-22T00:40:04;22.82;60.10
77467;DHT22;66564;42.482;25.548;2023-06-22T00:42:30;22.81;60.10
77467;DHT22;66564;42.482;25.548;2023-06-22T00:44:56;22.79;60.11
77467;DHT22;66564;42.482;25.548;2023-06-22T00:47:22;22.71;60.25
77467;DHT22;66564;42.482;25.548;2023-06-22T00:49:49;22.68;60.33
77467;DHT22;66564;42.482;25.548;2023-06-22T00:52:17;22.62;60.44
77467;DHT22;66564;42.482;25.548;2023-06-22T00:54:47;22.61;60.45
77467;DHT22;66564;42.482;25.548;2023-06-22T00:57:14;22.64;60.45
77467;DHT22;66564;42.482;25.548;2023-06-22T00:59:48;22.64;60.35
77467;DHT22;66564;42.482;25.548;2023-06-22T01:02:14;22.61;60.45
77467;DHT22;66564;42.482;25.548;2023-06-22T01:04:40;22.61;60.47
77467;DHT22;66564;42.482;25.548;2023-06-22T01:07:19;22.62;60.69
77467;DHT22;66564;42.482;25.548;2023-06-22T01:12:40;22.55;60.65
77467;DHT22;66564;42.482;25.548;2023-06-22T01:15:12;22.54;60.85
77467;DHT22;66564;42.482;25.548;2023-06-22T01:17:40;22.52;61.10
77467;DHT22;66564;42.482;25.548;2023-06-22T01:20:08;22.52;61.12
77467;DHT22;66564;42.482;25.548;2023-06-22T01:22:46;22.50;61.25
77467;DHT22;66564;42.482;25.548;2023-06-22T01:25:20;22.41;61.48
77467;DHT22;66564;42.482;25.548;2023-06-22T01:27:55;22.36;61.27
77467;DHT22;66564;42.482;25.548;2023-06-22T01:30:23;22.31;61.27
77467;DHT22;66564;42.482;25.548;2023-06-22T01:32:51;22.27;61.25
77467;DHT22;66564;42.482;25.548;2023-06-22T01:35:21;22.27;61.61
77467;DHT22;66564;42.482;25.548;2023-06-22T01:37:47;22.24;61.68
77467;DHT22;66564;42.482;25.548;2023-06-22T01:40:13;22.21;62.00
77467;DHT22;66564;42.482;25.548;2023-06-22T01:42:39;22.16;61.65
77467;DHT22;66564;42.482;25.548;2023-06-22T01:45:05;22.13;61.86
77467;DHT22;66564;42.482;25.548;2023-06-22T01:47:31;22.10;61.86
77467;DHT22;66564;42.482;25.548;2023-06-22T01:49:58;22.06;61.88
77467;DHT22;66564;42.482;25.548;2023-06-22T01:52:23;22.01;62.00
77467;DHT22;66564;42.482;25.548;2023-06-22T01:54:49;21.98;61.96
77467;DHT22;66564;42.482;25.548;2023-06-22T01:57:14;21.97;61.93
77467;DHT22;66564;42.482;25.548;2023-06-22T02:02:15;21.92;62.30
77467;DHT22;66564;42.482;25.548;2023-06-22T02:05:13;21.92;62.71
77467;DHT22;66564;42.482;25.548;2023-06-22T02:10:36;21.84;61.99
77467;DHT22;66564;42.482;25.548;2023-06-22T02:13:07;21.82;62.46
77467;DHT22;66564;42.482;25.548;2023-06-22T02:15:58;21.74;62.63
77467;DHT22;66564;42.482;25.548;2023-06-22T02:18:26;21.72;62.46
77467;DHT22;66564;42.482;25.548;2023-06-22T02:21:03;21.64;62.76
77467;DHT22;66564;42.482;25.548;2023-06-22T02:23:29;21.60;63.15
77467;DHT22;66564;42.482;25.548;2023-06-22T02:25:57;21.56;63.25
77467;DHT22;66564;42.482;25.548;2023-06-22T02:28:22;21.59;63.26
77467;DHT22;66564;42.482;25.548;2023-06-22T02:30:51;21.54;63.23
77467;DHT22;66564;42.482;25.548;2023-06-22T02:33:17;21.54;63.12
77467;DHT22;66564;42.482;25.548;2023-06-22T02:35:43;21.57;63.01
77467;DHT22;66564;42.482;25.548;2023-06-22T02:38:13;21.62;62.83
77467;DHT22;66564;42.482;25.548;2023-06-22T02:40:38;21.62;62.54
77467;DHT22;66564;42.482;25.548;2023-06-22T02:43:04;21.66;62.94
77467;DHT22;66564;42.482;25.548;2023-06-22T02:45:30;21.67;62.72
77467;DHT22;66564;42.482;25.548;2023-06-22T02:47:56;21.69;62.77
77467;DHT22;66564;42.482;25.548;2023-06-22T02:50:22;21.69;62.65
77467;DHT22;66564;42.482;25.548;2023-06-22T02:52:51;21.72;62.71
77467;DHT22;66564;42.482;25.548;2023-06-22T02:55:16;21.69;62.55
77467;DHT22;66564;42.482;25.548;2023-06-22T02:57:42;21.73;62.68
77467;DHT22;66564;42.482;25.548;2023-06-22T03:00:15;21.72;62.69
77467;DHT22;66564;42.482;25.548;2023-06-22T03:02:50;21.72;62.71
77467;DHT22;66564;42.482;25.548;2023-06-22T03:05:16;21.69;62.64
77467;DHT22;66564;42.482;25.548;2023-06-22T03:07:46;21.69;62.71
77467;DHT22;66564;42.482;25.548;2023-06-22T03:10:13;21.69;62.95
77467;DHT22;66564;42.482;25.548;2023-06-22T03:12:40;21.64;63.79
77467;DHT22;66564;42.482;25.548;2023-06-22T03:15:07;21.64;63.34
77467;DHT22;66564;42.482;25.548;2023-06-22T03:17:40;21.59;64.06
77467;DHT22;66564;42.482;25.548;2023-06-22T03:20:09;21.53;64.18
77467;DHT22;66564;42.482;25.548;2023-06-22T03:22:38;21.54;63.90
77467;DHT22;66564;42.482;25.548;2023-06-22T03:25:09;21.57;63.81
77467;DHT22;66564;42.482;25.548;2023-06-22T03:27:42;21.57;63.81
77467;DHT22;66564;42.482;25.548;2023-06-22T03:30:10;21.60;63.69
77467;DHT22;66564;42.482;25.548;2023-06-22T03:32:36;21.63;63.94
77467;DHT22;66564;42.482;25.548;2023-06-22T03:35:02;21.69;63.59
77467;DHT22;66564;42.482;25.548;2023-06-22T03:37:28;21.76;63.25
77467;DHT22;66564;42.482;25.548;2023-06-22T03:39:53;21.86;64.25
77467;DHT22;66564;42.482;25.548;2023-06-22T03:42:19;21.84;63.44
77467;DHT22;66564;42.482;25.548;2023-06-22T03:44:45;21.92;63.08
77467;DHT22;66564;42.482;25.548;2023-06-22T03:47:10;21.93;63.25
77467;DHT22;66564;42.482;25.548;2023-06-22T03:49:36;21.98;63.51
77467;DHT22;66564;42.482;25.548;2023-06-22T03:52:02;21.97;63.60
77467;DHT22;66564;42.482;25.548;2023-06-22T03:54:31;22.00;63.81
77467;DHT22;66564;42.482;25.548;2023-06-22T03:56:58;22.01;63.84
77467;DHT22;66564;42.482;25.548;2023-06-22T03:59:24;22.07;63.20
77467;DHT22;66564;42.482;25.548;2023-06-22T04:01:49;22.11;63.34
77467;DHT22;66564;42.482;25.548;2023-06-22T04:04:18;22.13;63.28
77467;DHT22;66564;42.482;25.548;2023-06-22T04:06:44;22.22;63.39
77467;DHT22;66564;42.482;25.548;2023-06-22T04:09:10;22.31;63.05
77467;DHT22;66564;42.482;25.548;2023-06-22T04:11:35;22.31;63.80
77467;DHT22;66564;42.482;25.548;2023-06-22T04:14:00;22.38;63.91
77467;DHT22;66564;42.482;25.548;2023-06-22T04:16:26;22.43;64.42
77467;DHT22;66564;42.482;25.548;2023-06-22T04:18:57;22.47;65.26
77467;DHT22;66564;42.482;25.548;2023-06-22T04:21:22;22.47;65.10
77467;DHT22;66564;42.482;25.548;2023-06-22T04:23:48;22.45;65.44
77467;DHT22;66564;42.482;25.548;2023-06-22T04:26:13;22.50;64.46
77467;DHT22;66564;42.482;25.548;2023-06-22T04:28:40;22.54;64.51
77467;DHT22;66564;42.482;25.548;2023-06-22T04:31:05;22.54;64.08
77467;DHT22;66564;42.482;25.548;2023-06-22T04:33:49;22.58;63.44
77467;DHT22;66564;42.482;25.548;2023-06-22T04:36:16;22.61;63.20
77467;DHT22;66564;42.482;25.548;2023-06-22T04:38:42;22.57;62.97
77467;DHT22;66564;42.482;25.548;2023-06-22T04:41:12;22.65;62.32
77467;DHT22;66564;42.482;25.548;2023-06-22T04:43:39;22.67;62.88
77467;DHT22;66564;42.482;25.548;2023-06-22T04:46:05;22.71;62.40
77467;DHT22;66564;42.482;25.548;2023-06-22T04:48:30;22.76;61.90
77467;DHT22;66564;42.482;25.548;2023-06-22T04:51:00;22.82;62.66
77467;DHT22;66564;42.482;25.548;2023-06-22T04:53:29;22.89;63.21
77467;DHT22;66564;42.482;25.548;2023-06-22T04:55:55;22.95;63.50
77467;DHT22;66564;42.482;25.548;2023-06-22T04:58:21;23.01;63.25
77467;DHT22;66564;42.482;25.548;2023-06-22T05:00:47;23.03;62.74
77467;DHT22;66564;42.482;25.548;2023-06-22T05:03:12;23.11;62.63
77467;DHT22;66564;42.482;25.548;2023-06-22T05:05:38;23.16;62.65
77467;DHT22;66564;42.482;25.548;2023-06-22T05:08:04;23.19;64.47
77467;DHT22;66564;42.482;25.548;2023-06-22T05:10:32;23.26;64.06
77467;DHT22;66564;42.482;25.548;2023-06-22T05:12:58;23.38;64.28
77467;DHT22;66564;42.482;25.548;2023-06-22T05:15:24;23.46;63.68
77467;DHT22;66564;42.482;25.548;2023-06-22T05:17:53;23.56;63.42
77467;DHT22;66564;42.482;25.548;2023-06-22T05:20:19;23.66;63.11
77467;DHT22;66564;42.482;25.548;2023-06-22T05:22:44;23.73;63.89
77467;DHT22;66564;42.482;25.548;2023-06-22T05:25:11;23.83;64.10
77467;DHT22;66564;42.482;25.548;2023-06-22T05:27:37;23.92;63.66
77467;DHT22;66564;42.482;25.548;2023-06-22T05:30:09;23.98;62.91
77467;DHT22;66564;42.482;25.548;2023-06-22T05:32:35;24.08;63.16
77467;DHT22;66564;42.482;25.548;2023-06-22T05:35:01;24.18;62.16
77467;DHT22;66564;42.482;25.548;2023-06-22T05:37:28;24.32;61.95
77467;DHT22;66564;42.482;25.548;2023-06-22T05:39:54;24.34;62.26
77467;DHT22;66564;42.482;25.548;2023-06-22T05:42:22;24.44;62.06
77467;DHT22;66564;42.482;25.548;2023-06-22T05:44:48;24.50;61.39
77467;DHT22;66564;42.482;25.548;2023-06-22T05:47:14;24.65;62.25
77467;DHT22;66564;42.482;25.548;2023-06-22T05:49:39;24.81;62.76
77467;DHT22;66564;42.482;25.548;2023-06-22T05:52:05;24.96;62.24
77467;DHT22;66564;42.482;25.548;2023-06-22T05:54:31;25.04;62.08
77467;DHT22;66564;42.482;25.548;2023-06-22T05:56:56;25.18;62.33
77467;DHT22;66564;42.482;25.548;2023-06-22T05:59:22;25.29;61.27
77467;DHT22;66564;42.482;25.548;2023-06-22T06:01:47;25.46;61.46
77467;DHT22;66564;42.482;25.548;2023-06-22T06:04:18;25.59;61.36
77467;DHT22;66564;42.482;25.548;2023-06-22T06:06:44;25.73;61.04
77467;DHT22;66564;42.482;25.548;2023-06-22T06:09:19;25.90;59.04
77467;DHT22;66564;42.482;25.548;2023-06-22T06:11:45;26.04;57.38
77467;DHT22;66564;42.482;25.548;2023-06-22T06:14:10;26.08;57.37
77467;DHT22;66564;42.482;25.548;2023-06-22T06:16:36;26.21;57.23
77467;DHT22;66564;42.482;25.548;2023-06-22T06:19:01;26.37;55.14
77467;DHT22;66564;42.482;25.548;2023-06-22T06:21:27;26.49;54.82
77467;DHT22;66564;42.482;25.548;2023-06-22T06:23:53;26.65;52.45
77467;DHT22;66564;42.482;25.548;2023-06-22T06:26:18;26.74;51.76
77467;DHT22;66564;42.482;25.548;2023-06-22T06:28:53;26.79;52.07
77467;DHT22;66564;42.482;25.548;2023-06-22T06:31:19;26.86;51.02
77467;DHT22;66564;42.482;25.548;2023-06-22T06:33:46;27.03;50.94
77467;DHT22;66564;42.482;25.548;2023-06-22T06:36:11;27.13;50.24
77467;DHT22;66564;42.482;25.548;2023-06-22T06:38:37;27.32;50.32
77467;DHT22;66564;42.482;25.548;2023-06-22T06:41:02;27.42;48.77
77467;DHT22;66564;42.482;25.548;2023-06-22T06:43:28;27.53;49.36
77467;DHT22;66564;42.482;25.548;2023-06-22T06:45:53;27.70;49.90
77467;DHT22;66564;42.482;25.548;2023-06-22T06:48:19;27.84;48.71
77467;DHT22;66564;42.482;25.548;2023-06-22T06:50:44;28.04;48.35
77467;DHT22;66564;42.482;25.548;2023-06-22T06:53:10;28.28;49.12
77467;DHT22;66564;42.482;25.548;2023-06-22T06:55:36;28.48;47.30
77467;DHT22;66564;42.482;25.548;2023-06-22T06:58:02;28.72;46.35
77467;DHT22;66564;42.482;25.548;2023-06-22T07:00:32;28.88;45.99
77467;DHT22;66564;42.482;25.548;2023-06-22T07:02:58;28.99;45.48
77467;DHT22;66564;42.482;25.548;2023-06-22T07:05:23;29.10;46.11
77467;DHT22;66564;42.482;25.548;2023-06-22T07:07:49;29.34;46.68
77467;DHT22;66564;42.482;25.548;2023-06-22T07:10:15;29.60;44.96
77467;DHT22;66564;42.482;25.548;2023-06-22T07:12:40;29.73;46.02
77467;DHT22;66564;42.482;25.548;2023-06-22T07:15:08;29.93;44.31
77467;DHT22;66564;42.482;25.548;2023-06-22T07:17:34;30.11;43.47
77467;DHT22;66564;42.482;25.548;2023-06-22T07:20:01;30.34;43.22
77467;DHT22;66564;42.482;25.548;2023-06-22T07:22:27;30.44;44.68
77467;DHT22;66564;42.482;25.548;2023-06-22T07:24:52;30.69;44.04
77467;DHT22;66564;42.482;25.548;2023-06-22T07:27:18;30.98;43.45
77467;DHT22;66564;42.482;25.548;2023-06-22T07:29:45;30.96;41.96
77467;DHT22;66564;42.482;25.548;2023-06-22T07:32:11;31.23;43.07
77467;DHT22;66564;42.482;25.548;2023-06-22T07:34:36;31.49;42.37
77467;DHT22;66564;42.482;25.548;2023-06-22T07:37:05;31.54;41.84
77467;DHT22;66564;42.482;25.548;2023-06-22T07:39:30;31.60;39.84
77467;DHT22;66564;42.482;25.548;2023-06-22T07:41:56;31.69;40.79
77467;DHT22;66564;42.482;25.548;2023-06-22T07:44:21;31.76;39.82
77467;DHT22;66564;42.482;25.548;2023-06-22T07:46:47;31.90;39.52
77467;DHT22;66564;42.482;25.548;2023-06-22T07:49:12;31.96;40.45
77467;DHT22;66564;42.482;25.548;2023-06-22T07:51:38;32.08;40.22
77467;DHT22;66564;42.482;25.548;2023-06-22T07:54:03;32.24;40.06
77467;DHT22;66564;42.482;25.548;2023-06-22T07:56:29;32.40;40.24
77467;DHT22;66564;42.482;25.548;2023-06-22T07:58:54;32.40;39.57
77467;DHT22;66564;42.482;25.548;2023-06-22T08:01:23;32.37;39.81
77467;DHT22;66564;42.482;25.548;2023-06-22T08:03:48;32.52;40.97
77467;DHT22;66564;42.482;25.548;2023-06-22T08:06:14;32.50;40.13
77467;DHT22;66564;42.482;25.548;2023-06-22T08:08:40;32.58;41.15
77467;DHT22;66564;42.482;25.548;2023-06-22T08:11:05;32.75;40.86
77467;DHT22;66564;42.482;25.548;2023-06-22T08:13:31;32.86;39.98
77467;DHT22;66564;42.482;25.548;2023-06-22T08:15:56;32.91;40.30
77467;DHT22;66564;42.482;25.548;2023-06-22T08:18:34;33.03;39.44
77467;DHT22;66564;42.482;25.548;2023-06-22T08:21:29;33.19;37.86
77467;DHT22;66564;42.482;25.548;2023-06-22T08:24:29;33.30;38.19
77467;DHT22;66564;42.482;25.548;2023-06-22T08:30:46;33.42;37.62
77467;DHT22;66564;42.482;25.548;2023-06-22T08:33:12;33.33;37.88
77467;DHT22;66564;42.482;25.548;2023-06-22T08:35:41;33.22;37.55
77467;DHT22;66564;42.482;25.548;2023-06-22T08:38:06;33.21;37.74
77467;DHT22;66564;42.482;25.548;2023-06-22T08:40:33;33.26;39.41
77467;DHT22;66564;42.482;25.548;2023-06-22T08:42:58;33.36;39.65
77467;DHT22;66564;42.482;25.548;2023-06-22T08:45:24;33.35;40.10
77467;DHT22;66564;42.482;25.548;2023-06-22T08:47:49;33.36;40.74
77467;DHT22;66564;42.482;25.548;2023-06-22T08:50:15;33.27;38.83
77467;DHT22;66564;42.482;25.548;2023-06-22T08:52:40;33.18;37.88
77467;DHT22;66564;42.482;25.548;2023-06-22T08:55:09;33.12;38.25
77467;DHT22;66564;42.482;25.548;2023-06-22T08:57:35;33.08;39.06
77467;DHT22;66564;42.482;25.548;2023-06-22T09:00:06;32.94;40.60
77467;DHT22;66564;42.482;25.548;2023-06-22T09:02:36;32.82;40.48
77467;DHT22;66564;42.482;25.548;2023-06-22T09:05:03;32.65;40.49
77467;DHT22;66564;42.482;25.548;2023-06-22T09:07:28;32.51;40.48
77467;DHT22;66564;42.482;25.548;2023-06-22T09:09:55;32.35;40.38
77467;DHT22;66564;42.482;25.548;2023-06-22T09:12:21;32.07;40.28
77467;DHT22;66564;42.482;25.548;2023-06-22T09:14:51;31.91;41.16
77467;DHT22;66564;42.482;25.548;2023-06-22T09:17:16;31.70;41.14
77467;DHT22;66564;42.482;25.548;2023-06-22T09:19:42;31.50;41.65
77467;DHT22;66564;42.482;25.548;2023-06-22T09:22:07;31.33;42.39
77467;DHT22;66564;42.482;25.548;2023-06-22T09:24:33;31.12;42.99
77467;DHT22;66564;42.482;25.548;2023-06-22T09:27:17;30.95;45.10
77467;DHT22;66564;42.482;25.548;2023-06-22T09:30:02;30.81;45.48
77467;DHT22;66564;42.482;25.548;2023-06-22T09:32:46;30.67;45.22
77467;DHT22;66564;42.482;25.548;2023-06-22T09:35:11;30.52;45.61
77467;DHT22;66564;42.482;25.548;2023-06-22T09:37:39;30.42;46.07
77467;DHT22;66564;42.482;25.548;2023-06-22T09:40:06;30.34;46.08
77467;DHT22;66564;42.482;25.548;2023-06-22T09:42:35;30.21;45.88
77467;DHT22;66564;42.482;25.548;2023-06-22T09:45:01;30.17;45.82
77467;DHT22;66564;42.482;25.548;2023-06-22T09:47:27;30.21;45.40
77467;DHT22;66564;42.482;25.548;2023-06-22T09:49:53;30.18;46.28
77467;DHT22;66564;42.482;25.548;2023-06-22T09:52:21;30.17;45.93
77467;DHT22;66564;42.482;25.548;2023-06-22T09:54:49;30.11;44.82
77467;DHT22;66564;42.482;25.548;2023-06-22T09:57:15;29.98;44.74
77467;DHT22;66564;42.482;25.548;2023-06-22T09:59:40;29.94;45.32
77467;DHT22;66564;42.482;25.548;2023-06-22T10:02:06;29.91;46.20
77467;DHT22;66564;42.482;25.548;2023-06-22T10:04:33;29.88;46.34
77467;DHT22;66564;42.482;25.548;2023-06-22T10:06:59;29.87;46.31
77467;DHT22;66564;42.482;25.548;2023-06-22T10:09:25;29.83;46.28
77467;DHT22;66564;42.482;25.548;2023-06-22T10:11:50;29.76;45.77
77467;DHT22;66564;42.482;25.548;2023-06-22T10:14:19;29.70;45.98
77467;DHT22;66564;42.482;25.548;2023-06-22T10:16:45;29.69;46.62
77467;DHT22;66564;42.482;25.548;2023-06-22T10:19:10;29.74;46.90
77467;DHT22;66564;42.482;25.548;2023-06-22T10:21:36;29.81;46.89
77467;DHT22;66564;42.482;25.548;2023-06-22T10:24:01;29.90;47.42
77467;DHT22;66564;42.482;25.548;2023-06-22T10:26:34;30.01;45.94
77467;DHT22;66564;42.482;25.548;2023-06-22T10:29:01;30.01;46.29
77467;DHT22;66564;42.482;25.548;2023-06-22T10:31:27;30.14;44.86
77467;DHT22;66564;42.482;25.548;2023-06-22T10:33:53;30.27;45.70
77467;DHT22;66564;42.482;25.548;2023-06-22T10:36:19;30.39;44.51
77467;DHT22;66564;42.482;25.548;2023-06-22T10:38:45;30.48;43.87
77467;DHT22;66564;42.482;25.548;2023-06-22T10:41:12;30.71;43.06
77467;DHT22;66564;42.482;25.548;2023-06-22T10:43:37;30.86;44.65
77467;DHT22;66564;42.482;25.548;2023-06-22T10:46:03;31.02;43.88
77467;DHT22;66564;42.482;25.548;2023-06-22T10:48:28;31.23;43.10
77467;DHT22;66564;42.482;25.548;2023-06-22T10:50:54;31.29;42.68
77467;DHT22;66564;42.482;25.548;2023-06-22T10:53:20;31.37;40.56
77467;DHT22;66564;42.482;25.548;2023-06-22T10:55:45;31.60;39.57
77467;DHT22;66564;42.482;25.548;2023-06-22T10:58:11;31.76;40.03
77467;DHT22;66564;42.482;25.548;2023-06-22T11:00:36;32.04;42.62
77467;DHT22;66564;42.482;25.548;2023-06-22T11:03:02;32.34;41.58
77467;DHT22;66564;42.482;25.548;2023-06-22T11:05:27;32.70;38.65
77467;DHT22;66564;42.482;25.548;2023-06-22T11:07:56;32.99;37.24
77467;DHT22;66564;42.482;25.548;2023-06-22T11:10:21;33.29;37.39
77467;DHT22;66564;42.482;25.548;2023-06-22T11:12:47;33.59;36.51
77467;DHT22;66564;42.482;25.548;2023-06-22T11:15:12;33.86;35.53
77467;DHT22;66564;42.482;25.548;2023-06-22T11:17:38;34.06;35.60
77467;DHT22;66564;42.482;25.548;2023-06-22T11:20:04;34.16;35.78
77467;DHT22;66564;42.482;25.548;2023-06-22T11:22:37;34.50;36.78
77467;DHT22;66564;42.482;25.548;2023-06-22T11:25:02;34.74;35.44
77467;DHT22;66564;42.482;25.548;2023-06-22T11:27:28;34.95;33.97
77467;DHT22;66564;42.482;25.548;2023-06-22T11:29:54;35.12;34.28
77467;DHT22;66564;42.482;25.548;2023-06-22T11:32:19;35.22;33.24
77467;DHT22;66564;42.482;25.548;2023-06-22T11:34:45;35.29;33.47
77467;DHT22;66564;42.482;25.548;2023-06-22T11:37:10;35.50;34.61
77467;DHT22;66564;42.482;25.548;2023-06-22T11:39:36;35.59;32.44
77467;DHT22;66564;42.482;25.548;2023-06-22T11:42:01;35.65;33.50
77467;DHT22;66564;42.482;25.548;2023-06-22T11:44:29;35.67;31.55
77467;DHT22;66564;42.482;25.548;2023-06-22T11:46:54;35.59;31.41
77467;DHT22;66564;42.482;25.548;2023-06-22T11:49:20;35.50;32.29
77467;DHT22;66564;42.482;25.548;2023-06-22T11:51:45;35.41;31.97
77467;DHT22;66564;42.482;25.548;2023-06-22T11:54:11;35.36;32.93
77467;DHT22;66564;42.482;25.548;2023-06-22T11:56:36;35.26;33.30
77467;DHT22;66564;42.482;25.548;2023-06-22T11:59:02;35.09;34.23
77467;DHT22;66564;42.482;25.548;2023-06-22T12:01:27;34.96;35.27
77467;DHT22;66564;42.482;25.548;2023-06-22T12:03:52;34.82;35.61
77467;DHT22;66564;42.482;25.548;2023-06-22T12:06:18;34.57;36.17
77467;DHT22;66564;42.482;25.548;2023-06-22T12:08:43;34.36;36.67
77467;DHT22;66564;42.482;25.548;2023-06-22T12:11:09;34.18;37.09
77467;DHT22;66564;42.482;25.548;2023-06-22T12:13:36;33.97;37.89
77467;DHT22;66564;42.482;25.548;2023-06-22T12:16:02;33.70;38.67
77467;DHT22;66564;42.482;25.548;2023-06-22T12:18:28;33.53;39.22
77467;DHT22;66564;42.482;25.548;2023-06-22T12:20:57;33.41;39.31
77467;DHT22;66564;42.482;25.548;2023-06-22T12:23:22;33.39;38.78
77467;DHT22;66564;42.482;25.548;2023-06-22T12:25:48;33.30;36.11
77467;DHT22;66564;42.482;25.548;2023-06-22T12:28:13;33.36;36.55
77467;DHT22;66564;42.482;25.548;2023-06-22T12:30:39;33.42;37.31
77467;DHT22;66564;42.482;25.548;2023-06-22T12:33:04;33.52;37.19
77467;DHT22;66564;42.482;25.548;2023-06-22T12:35:31;33.67;38.32
77467;DHT22;66564;42.482;25.548;2023-06-22T12:37:59;33.80;38.16
77467;DHT22;66564;42.482;25.548;2023-06-22T12:40:25;33.97;36.08
77467;DHT22;66564;42.482;25.548;2023-06-22T12:42:50;34.08;35.22
77467;DHT22;66564;42.482;25.548;2023-06-22T12:45:16;34.16;34.23
77467;DHT22;66564;42.482;25.548;2023-06-22T12:47:41;34.23;33.22
77467;DHT22;66564;42.482;25.548;2023-06-22T12:50:11;34.04;33.72
77467;DHT22;66564;42.482;25.548;2023-06-22T12:52:37;34.03;33.48
77467;DHT22;66564;42.482;25.548;2023-06-22T12:55:07;34.16;34.10
77467;DHT22;66564;42.482;25.548;2023-06-22T12:57:32;33.85;34.35
77467;DHT22;66564;42.482;25.548;2023-06-22T12:59:58;33.97;34.04
77467;DHT22;66564;42.482;25.548;2023-06-22T13:02:25;34.10;34.29
77467;DHT22;66564;42.482;25.548;2023-06-22T13:04:51;34.23;35.09
77467;DHT22;66564;42.482;25.548;2023-06-22T13:07:16;34.31;35.40
77467;DHT22;66564;42.482;25.548;2023-06-22T13:09:42;34.34;32.50
77467;DHT22;66564;42.482;25.548;2023-06-22T13:12:10;34.27;32.95
77467;DHT22;66564;42.482;25.548;2023-06-22T13:14:36;34.24;33.34
77467;DHT22;66564;42.482;25.548;2023-06-22T13:17:01;34.28;33.19
77467;DHT22;66564;42.482;25.548;2023-06-22T13:19:27;34.37;34.69
77467;DHT22;66564;42.482;25.548;2023-06-22T13:21:54;34.51;35.24
77467;DHT22;66564;42.482;25.548;2023-06-22T13:24:19;34.61;34.62
77467;DHT22;66564;42.482;25.548;2023-06-22T13:26:45;34.52;32.86
77467;DHT22;66564;42.482;25.548;2023-06-22T13:29:10;34.41;34.72
77467;DHT22;66564;42.482;25.548;2023-06-22T13:31:37;34.36;35.17
77467;DHT22;66564;42.482;25.548;2023-06-22T13:34:02;34.25;34.72
77467;DHT22;66564;42.482;25.548;2023-06-22T13:36:28;34.06;34.48
77467;DHT22;66564;42.482;25.548;2023-06-22T13:38:55;33.78;35.27
77467;DHT22;66564;42.482;25.548;2023-06-22T13:41:21;33.57;36.39
77467;DHT22;66564;42.482;25.548;2023-06-22T13:43:46;33.23;37.00
77467;DHT22;66564;42.482;25.548;2023-06-22T13:46:12;32.89;38.17
77467;DHT22;66564;42.482;25.548;2023-06-22T13:48:37;32.58;39.29
77467;DHT22;66564;42.482;25.548;2023-06-22T13:51:03;32.30;40.22
77467;DHT22;66564;42.482;25.548;2023-06-22T13:53:28;32.08;41.01
77467;DHT22;66564;42.482;25.548;2023-06-22T13:55:54;31.90;42.01
77467;DHT22;66564;42.482;25.548;2023-06-22T13:58:19;31.70;41.80
77467;DHT22;66564;42.482;25.548;2023-06-22T14:00:46;31.64;40.61
77467;DHT22;66564;42.482;25.548;2023-06-22T14:03:13;31.59;40.09
77467;DHT22;66564;42.482;25.548;2023-06-22T14:05:41;31.54;38.76
77467;DHT22;66564;42.482;25.548;2023-06-22T14:08:06;31.54;38.51
77467;DHT22;66564;42.482;25.548;2023-06-22T14:10:32;31.62;39.23
77467;DHT22;66564;42.482;25.548;2023-06-22T14:12:58;31.64;38.65
77467;DHT22;66564;42.482;25.548;2023-06-22T14:15:25;31.69;40.66
77467;DHT22;66564;42.482;25.548;2023-06-22T14:17:51;31.67;39.35
77467;DHT22;66564;42.482;25.548;2023-06-22T14:20:17;31.67;38.70
77467;DHT22;66564;42.482;25.548;2023-06-22T14:22:42;31.74;38.96
77467;DHT22;66564;42.482;25.548;2023-06-22T14:25:10;31.81;39.35
77467;DHT22;66564;42.482;25.548;2023-06-22T14:27:38;31.76;38.79
77467;DHT22;66564;42.482;25.548;2023-06-22T14:30:06;31.70;37.62
77467;DHT22;66564;42.482;25.548;2023-06-22T14:32:31;31.59;38.14
77467;DHT22;66564;42.482;25.548;2023-06-22T14:34:57;31.69;40.00
77467;DHT22;66564;42.482;25.548;2023-06-22T14:37:22;31.77;39.76
77467;DHT22;66564;42.482;25.548;2023-06-22T14:39:48;31.86;39.07
77467;DHT22;66564;42.482;25.548;2023-06-22T14:42:13;31.94;39.25
77467;DHT22;66564;42.482;25.548;2023-06-22T14:44:39;32.01;38.76
77467;DHT22;66564;42.482;25.548;2023-06-22T14:47:04;31.93;38.34
77467;DHT22;66564;42.482;25.548;2023-06-22T14:49:31;31.72;37.00
77467;DHT22;66564;42.482;25.548;2023-06-22T14:51:56;31.73;37.40
77467;DHT22;66564;42.482;25.548;2023-06-22T14:54:22;31.66;37.31
77467;DHT22;66564;42.482;25.548;2023-06-22T14:56:48;31.57;37.51
77467;DHT22;66564;42.482;25.548;2023-06-22T14:59:14;31.53;38.60
77467;DHT22;66564;42.482;25.548;2023-06-22T15:01:39;31.49;40.93
77467;DHT22;66564;42.482;25.548;2023-06-22T15:04:05;31.50;42.52
77467;DHT22;66564;42.482;25.548;2023-06-22T15:06:30;31.46;41.87
77467;DHT22;66564;42.482;25.548;2023-06-22T15:08:56;31.40;42.15
77467;DHT22;66564;42.482;25.548;2023-06-22T15:11:21;31.34;41.65
77467;DHT22;66564;42.482;25.548;2023-06-22T15:13:47;31.27;41.37
77467;DHT22;66564;42.482;25.548;2023-06-22T15:16:12;31.22;40.87
77467;DHT22;66564;42.482;25.548;2023-06-22T15:18:38;31.15;40.21
77467;DHT22;66564;42.482;25.548;2023-06-22T15:21:06;31.08;40.44
77467;DHT22;66564;42.482;25.548;2023-06-22T15:23:32;31.02;40.73
77467;DHT22;66564;42.482;25.548;2023-06-22T15:25:58;30.92;40.94